Nearby METAR Reports

 

KSYN - Stanton, Minnesota, USA
Distance from station: NW 20mi, 33km
Updated: Sun, 05-Apr-2020 9:56pm CDT
Clear
Clear
 Wind from E
Wind: E 5 mph , 7 km/h
Temperature: 39°F , 4°C
Wind Chill: 35°F , 2°C
Dew Point: 32°F , 0°C
Humidity: 75%
Barometer: 30.00 inHg , 1015.9 hPa
Clouds: Clear
Visibility: 10 miles , 16 km
2020/04/06 02:56 KSYN 060256Z AUTO 09004KT 10SM CLR 04/00 A3000 RMK AO2 T00390000
KTOB - Dodge Center, Minnesota, USA
Distance from station: SSW 21mi, 34km
Updated: Sun, 05-Apr-2020 9:56pm CDT
Clear
Clear
 Wind from SE
Wind: SE 9 mph , 15 km/h
Temperature: 45°F , 7°C
Wind Chill: 40°F , 4°C
Dew Point: 30°F , -1°C
Humidity: 57%
Barometer: 30.02 inHg , 1016.6 hPa
Clouds: Clear
Visibility: 10 miles , 16 km
2020/04/06 02:56 KTOB 060256Z AUTO 13008KT 10SM CLR 07/M01 A3002 RMK AO2
K9MN - St Mary Hospital, Minnesota, USA
Distance from station: SSE 22mi, 35km
Updated: Sun, 05-Apr-2020 9:56pm CDT
Clear
Clear
 Wind from ESE
Wind: ESE 8 mph , 13 km/h
Temperature: 48°F , 9°C
Wind Chill: 44°F , 7°C
Dew Point: 27°F , -3°C
Humidity: 43%
Barometer: 30.04 inHg , 1017.3 hPa
Clouds: Clear
Visibility: 10 miles , 16 km
2020/04/06 02:56 K9MN 060256Z AUTO 12007KT 10SM CLR 09/M03 A3004 RMK AO1 T00871035
 
KRGK - Red Wing, Minnesota, USA
Distance from station: NNE 22mi, 35km
Updated: Sun, 05-Apr-2020 9:55pm CDT
Clear
Clear
 Wind from calm
Wind: Calm
Temperature: 45°F , 7°C
Dew Point: 27°F , -3°C
Humidity: 49%
Barometer: 30.03 inHg , 1016.9 hPa
Clouds: Clear
Visibility: 10 miles , 16 km
2020/04/06 02:55 KRGK 060255Z AUTO 00000KT 10SM CLR 07/M03 A3003 RMK AO2
KRST - Rochester, Minnesota, USA
Distance from station: SSE 29mi, 47km
Updated: Sun, 05-Apr-2020 9:54pm CDT
Clear
Clear
 Wind from SSE
Wind: SSE 9 mph , 15 km/h
Temperature: 41°F , 5°C
Wind Chill: 35°F , 2°C
Dew Point: 28°F , -2°C
Humidity: 61%
Barometer: 30.04 inHg , 1017.3 hPa
Clouds: Clear
Visibility: 10 miles , 16 km
2020/04/06 02:54 KRST 060254Z AUTO 15008KT 10SM CLR 05/M02 A3004 RMK AO2 SLP182 T00501017 56014
KOWA - Owatonna, Minnesota, USA
Distance from station: WSW 31mi, 50km
Updated: Sun, 05-Apr-2020 9:53pm CDT

 Wind from SE
Wind: SE 8 mph , 13 km/h
Temperature: 46°F , 8°C
Wind Chill: 42°F , 6°C
Dew Point: 30°F , -1°C
Humidity: 53%
Barometer: 30.00 inHg , 1015.9 hPa
Visibility: 10 miles , 16 km
2020/04/06 02:53 KOWA 060253Z AUTO 13007KT 10SM 08/M01 A3000 RMK AO2
 
KFBL - Faribault Muni, Minnesota, USA
Distance from station: W 32mi, 51km
Updated: Sun, 05-Apr-2020 9:56pm CDT

 Wind from E
Wind: E 5 mph , 7 km/h
Temperature: 48°F , 9°C
Wind Chill: 46°F , 8°C
Dew Point: 28°F , -2°C
Humidity: 46%
Barometer: 30.01 inHg , 1016.3 hPa
Visibility: 10 miles , 16 km
2020/04/06 02:56 KFBL 060256Z 09004KT 10SM 09/M02 A3001 RMK AO2
KSGS - South St Paul, Minnesota, USA
Distance from station: NNW 43mi, 69km
Updated: Sun, 05-Apr-2020 9:55pm CDT
Clear
Clear
 Wind from calm
Wind: Calm
Temperature: 45°F , 7°C
Dew Point: 30°F , -1°C
Humidity: 57%
Barometer: 30.02 inHg , 1016.6 hPa
Clouds: Clear
Visibility: 10 miles , 16 km
2020/04/06 02:55 KSGS 060255Z AUTO 00000KT 10SM CLR 07/M01 A3002 RMK AO2 T00701011
KAUM - Austin Muni, Minnesota, USA
Distance from station: SSW 46mi, 73km
Updated: Sun, 05-Apr-2020 9:55pm CDT
Clear
Clear
 Wind from SE
Wind: SE 7 mph , 11 km/h
Temperature: 46°F , 8°C
Wind Chill: 42°F , 6°C
Dew Point: 36°F , 2°C
Humidity: 66%
Barometer: 30.03 inHg , 1016.9 hPa
Clouds: Clear
Visibility: 10 miles , 16 km
2020/04/06 02:55 KAUM 060255Z AUTO 14006KT 10SM CLR 08/02 A3003 RMK AO2
 
KACQ - Waseca, Minnesota, USA
Distance from station: WSW 46mi, 75km
Updated: Sun, 05-Apr-2020 9:56pm CDT
Partly cloudy
Partly cloudy
 Wind from SE
Wind: SE 8 mph , 13 km/h
Temperature: 43°F , 6°C
Wind Chill: 38°F , 3°C
Dew Point: 32°F , 0°C
Humidity: 66%
Barometer: 30.01 inHg , 1016.3 hPa
Clouds: Partly cloudy
Visibility: 10 miles , 16 km
Cloud details: Partly cloudy 12000 ft
2020/04/06 02:56 KACQ 060256Z AUTO 13007KT 10SM SCT120 06/00 A3001 RMK AO2
KSTP - St. Paul, Minnesota, USA
Distance from station: NNW 47mi, 76km
Updated: Sun, 05-Apr-2020 9:53pm CDT
Clear
Clear
 Wind from calm
Wind: Calm
Temperature: 45°F , 7°C
Dew Point: 30°F , -1°C
Humidity: 57%
Barometer: 30.03 inHg , 1016.9 hPa
Clouds: Clear
Visibility: 10 miles , 16 km
2020/04/06 02:53 KSTP 060253Z AUTO 00000KT 10SM CLR 07/M01 A3003 RMK AO2 SLP171 T00721006 56011 $
KMSP - Minneapolis, Minnesota, USA
Distance from station: NW 49mi, 78km
Updated: Sun, 05-Apr-2020 9:53pm CDT
Partly cloudy
Partly cloudy
 Wind from ESE
Wind: ESE 9 mph , 15 km/h
Temperature: 48°F , 9°C
Wind Chill: 44°F , 7°C
Dew Point: 28°F , -2°C
Humidity: 46%
Barometer: 30.02 inHg , 1016.6 hPa
Clouds: Partly cloudy
Visibility: 10 miles , 16 km
Cloud details: Partly cloudy 14000 ft
2020/04/06 02:53 KMSP 060253Z 11008KT 10SM SCT140 09/M02 A3002 RMK AO2 SLP169 T00891022 56010